createdAt,value
2019-03-10T00:03:00.377Z,4.07
2019-03-10T00:05:30.007Z,4.23
2019-03-10T00:07:59.865Z,4.67
2019-03-10T00:10:29.533Z,3.80
2019-03-10T00:12:59.126Z,3.53
2019-03-10T00:15:28.863Z,4.03
2019-03-10T00:17:58.635Z,3.97
2019-03-10T00:20:28.404Z,4.30
2019-03-10T00:22:58.010Z,4.87
2019-03-10T00:25:27.730Z,3.53
2019-03-10T00:27:57.237Z,3.97
2019-03-10T00:30:27.206Z,3.80
2019-03-10T00:32:57.159Z,3.57
2019-03-10T00:38:27.215Z,4.03
2019-03-10T00:44:00.937Z,3.53
2019-03-10T00:58:07.043Z,3.53
2019-03-10T01:03:27.775Z,4.80
2019-03-10T01:08:52.277Z,4.03
2019-03-10T01:17:09.123Z,4.23
2019-03-10T01:22:33.894Z,4.33
2019-03-10T01:28:01.382Z,3.63
2019-03-10T01:33:25.865Z,4.03
2019-03-10T01:38:52.205Z,4.47
2019-03-10T01:44:19.820Z,3.93
2019-03-10T01:52:42.662Z,4.17
2019-03-10T01:55:24.112Z,4.27
2019-03-10T02:00:49.807Z,3.97
2019-03-10T02:12:07.933Z,3.73
2019-03-10T02:14:49.343Z,3.70
2019-03-10T02:17:30.772Z,5.40
2019-03-10T02:20:12.191Z,4.50
2019-03-10T02:28:34.051Z,3.93
2019-03-10T02:31:03.756Z,4.17
2019-03-10T02:33:47.365Z,4.23
2019-03-10T02:39:12.934Z,4.30
2019-03-10T02:47:47.633Z,3.77
2019-03-10T02:50:29.023Z,3.43
2019-03-10T02:53:10.739Z,4.60
2019-03-10T02:55:40.723Z,3.47
2019-03-10T02:58:29.337Z,3.60
2019-03-10T03:01:18.020Z,3.87
2019-03-10T03:06:59.360Z,3.63
2019-03-10T03:12:40.765Z,4.03
2019-03-10T03:18:22.144Z,4.87
2019-03-10T03:27:09.931Z,3.50
2019-03-10T03:29:58.514Z,3.97
2019-03-10T03:35:35.612Z,3.57
2019-03-10T03:38:05.529Z,4.13
2019-03-10T03:40:55.943Z,3.83
2019-03-10T03:52:44.709Z,3.77
2019-03-10T03:55:14.421Z,4.30
2019-03-10T03:57:46.306Z,4.20
2019-03-10T04:00:16.439Z,4.60
2019-03-10T04:02:45.962Z,4.13
2019-03-10T04:05:16.408Z,5.00
2019-03-10T04:07:45.981Z,4.57
2019-03-10T04:10:15.506Z,4.80
2019-03-10T04:12:45.019Z,4.10
2019-03-10T04:15:14.967Z,4.57
2019-03-10T04:17:44.512Z,3.93
2019-03-10T04:20:14.494Z,4.30
2019-03-10T04:22:43.979Z,4.10
2019-03-10T04:25:13.919Z,4.67
2019-03-10T04:27:43.475Z,5.67
2019-03-10T04:30:13.211Z,4.87
2019-03-10T04:32:42.760Z,5.00
2019-03-10T04:35:12.291Z,4.17
2019-03-10T04:37:41.769Z,4.93
2019-03-10T04:40:11.339Z,4.37
2019-03-10T04:42:40.802Z,4.10
2019-03-10T04:45:10.272Z,4.23
2019-03-10T04:47:39.863Z,5.07
2019-03-10T04:50:09.977Z,5.20
2019-03-10T04:52:39.911Z,4.53
2019-03-10T04:55:27.655Z,4.80
2019-03-10T04:57:59.735Z,4.87
2019-03-10T05:00:30.043Z,4.90
2019-03-10T05:02:59.601Z,4.43
2019-03-10T05:05:29.591Z,4.60
2019-03-10T05:07:59.151Z,5.17
2019-03-10T05:10:28.700Z,4.40
2019-03-10T05:12:58.261Z,4.83
2019-03-10T05:15:28.160Z,4.93
2019-03-10T05:17:57.699Z,4.70
2019-03-10T05:20:27.231Z,4.43
2019-03-10T05:23:53.136Z,4.23
2019-03-10T05:26:23.201Z,5.42
2019-03-10T05:28:52.659Z,5.28
2019-03-10T05:31:22.143Z,4.67
2019-03-10T05:33:52.836Z,4.00
2019-03-10T05:36:22.429Z,4.20
2019-03-10T05:38:52.065Z,4.33
2019-03-10T05:41:21.680Z,4.40
2019-03-10T05:43:51.727Z,5.33
2019-03-10T05:46:21.231Z,4.30
2019-03-10T05:48:50.779Z,4.90
2019-03-10T05:51:20.251Z,4.23
2019-03-10T05:53:50.295Z,4.10
2019-03-10T05:56:19.763Z,4.70
2019-03-10T05:58:49.241Z,5.47
2019-03-10T06:01:18.883Z,5.20
2019-03-10T06:03:48.363Z,4.77
2019-03-10T06:06:17.920Z,6.00
2019-03-10T06:08:47.451Z,4.37
2019-03-10T06:11:17.023Z,5.00
2019-03-10T06:13:46.540Z,5.93
2019-03-10T06:16:16.100Z,5.30
2019-03-10T06:18:45.670Z,5.10
2019-03-10T06:21:15.538Z,6.07
2019-03-10T06:24:04.063Z,6.87
2019-03-10T06:26:33.486Z,6.07
2019-03-10T06:29:02.928Z,6.73
2019-03-10T06:31:32.511Z,6.65
2019-03-10T06:34:02.053Z,5.83
2019-03-10T06:36:31.920Z,6.00
2019-03-10T06:39:01.439Z,6.47
2019-03-10T06:41:30.929Z,6.77
2019-03-10T06:44:00.467Z,5.80
2019-03-10T06:46:30.032Z,5.33
2019-03-10T06:48:59.612Z,4.37
2019-03-10T06:51:29.175Z,4.58
2019-03-10T06:53:58.636Z,3.83
2019-03-10T06:56:28.204Z,4.60
2019-03-10T06:59:02.273Z,3.83
2019-03-10T07:01:32.083Z,3.80
2019-03-10T07:04:01.790Z,3.80
2019-03-10T07:06:31.368Z,3.20
2019-03-10T07:09:00.827Z,3.00
2019-03-10T07:11:30.342Z,2.93
2019-03-10T07:13:59.825Z,2.53
2019-03-10T07:16:29.253Z,2.63
2019-03-10T07:18:58.866Z,2.50
2019-03-10T07:21:28.423Z,2.00
2019-03-10T07:23:57.947Z,1.80
2019-03-10T07:26:27.737Z,2.20
2019-03-10T07:29:08.354Z,2.50
2019-03-10T07:31:51.479Z,1.70
2019-03-10T07:34:32.920Z,1.90
2019-03-10T07:37:23.991Z,1.97
2019-03-10T07:40:15.599Z,2.00
2019-03-10T07:43:07.076Z,2.10
2019-03-10T07:45:51.355Z,2.45
2019-03-10T07:48:55.220Z,2.37
2019-03-10T07:51:58.657Z,2.40
2019-03-10T07:54:36.152Z,2.23
2019-03-10T07:57:42.907Z,2.83
2019-03-10T08:00:33.932Z,2.00
2019-03-10T08:03:13.575Z,2.20
2019-03-10T08:06:00.880Z,2.03
2019-03-10T08:08:40.881Z,2.30
2019-03-10T08:11:15.976Z,2.10
2019-03-10T08:14:06.385Z,2.30
2019-03-10T08:17:03.812Z,1.80
2019-03-10T08:19:56.223Z,1.70
2019-03-10T08:22:59.876Z,1.87
2019-03-10T08:25:51.955Z,2.30
2019-03-10T08:28:58.662Z,2.20
2019-03-10T08:31:43.715Z,2.10
2019-03-10T08:34:44.423Z,2.20
2019-03-10T08:37:32.858Z,2.30
2019-03-10T08:40:30.354Z,1.90
2019-03-10T08:43:24.615Z,2.20
2019-03-10T08:46:13.005Z,2.50
2019-03-10T08:48:48.410Z,2.27
2019-03-10T08:51:33.068Z,1.87
2019-03-10T08:54:21.663Z,1.60
2019-03-10T08:57:08.076Z,1.70
2019-03-10T09:00:11.616Z,1.67
2019-03-10T09:03:09.640Z,1.80
2019-03-10T09:05:57.099Z,1.63
2019-03-10T09:08:44.435Z,1.50
2019-03-10T09:11:32.755Z,1.33
2019-03-10T09:14:36.583Z,1.27
2019-03-10T09:17:33.007Z,1.07
2019-03-10T09:20:15.333Z,1.00
2019-03-10T09:23:02.525Z,1.20
2019-03-10T09:25:54.583Z,1.60
2019-03-10T09:28:34.216Z,1.37
2019-03-10T09:31:21.986Z,1.47
2019-03-10T09:34:19.449Z,1.20
2019-03-10T09:37:19.810Z,1.40
2019-03-10T09:40:14.438Z,1.33
2019-03-10T09:43:01.898Z,1.40
2019-03-10T09:45:40.990Z,1.33
2019-03-10T09:48:35.447Z,1.40
2019-03-10T09:51:22.563Z,1.40
2019-03-10T09:54:11.691Z,1.50
2019-03-10T09:57:11.605Z,1.20
2019-03-10T09:59:58.788Z,1.10
2019-03-10T10:02:47.224Z,1.17
2019-03-10T10:20:36.694Z,1.03
2019-03-10T10:23:44.068Z,0.80
2019-03-10T10:26:39.604Z,0.63
2019-03-10T10:33:18.206Z,0.50
2019-03-10T10:42:27.301Z,0.30
2019-03-10T10:48:32.635Z,0.33
2019-03-10T10:54:55.698Z,0.70
2019-03-10T10:58:06.620Z,0.33
2019-03-10T11:01:04.023Z,0.50
2019-03-10T11:04:11.602Z,0.50
2019-03-10T11:13:19.607Z,0.43
2019-03-10T11:16:27.208Z,0.70
2019-03-10T11:19:02.931Z,0.40
2019-03-10T11:21:51.357Z,0.30
2019-03-10T11:24:58.859Z,0.60
2019-03-10T11:27:47.502Z,0.40
2019-03-10T11:30:36.138Z,0.50
2019-03-10T11:33:27.444Z,0.57
2019-03-10T11:36:18.387Z,0.60
2019-03-10T11:45:27.845Z,0.63
2019-03-10T11:54:23.327Z,0.50
2019-03-10T12:03:02.253Z,0.98
2019-03-10T12:08:54.762Z,0.80
2019-03-10T12:11:36.281Z,0.90
2019-03-10T12:14:19.222Z,1.10
2019-03-10T12:28:18.955Z,0.77
2019-03-10T12:39:56.240Z,1.32
2019-03-10T12:48:39.522Z,1.03
2019-03-10T12:51:28.813Z,1.07
2019-03-10T12:54:45.198Z,0.90
2019-03-10T12:57:10.927Z,0.90
2019-03-10T12:59:59.477Z,0.90
2019-03-10T13:02:48.094Z,1.12
2019-03-10T13:08:52.339Z,1.20
2019-03-10T13:17:36.547Z,1.40
2019-03-10T13:20:28.468Z,1.52
2019-03-10T13:23:16.176Z,1.60
2019-03-10T13:26:04.741Z,2.33
2019-03-10T13:28:53.348Z,1.70
2019-03-10T13:31:37.913Z,2.05
2019-03-10T13:34:19.351Z,1.98
2019-03-10T13:48:37.651Z,2.08
2019-03-10T14:02:42.013Z,2.33
2019-03-10T14:08:21.956Z,1.70
2019-03-10T14:23:10.798Z,1.77
2019-03-10T14:29:14.056Z,1.83
2019-03-10T14:32:23.117Z,2.20
2019-03-10T14:35:11.934Z,1.73
2019-03-10T14:40:55.329Z,1.93
2019-03-10T14:46:29.869Z,1.57
2019-03-10T14:49:23.445Z,1.20
2019-03-10T14:55:01.734Z,1.20
2019-03-10T14:57:43.162Z,1.10
2019-03-10T15:06:10.060Z,1.37
2019-03-10T15:08:51.191Z,1.50
2019-03-10T15:19:59.986Z,1.20
2019-03-10T15:22:29.547Z,1.17
2019-03-10T15:24:59.125Z,1.50
2019-03-10T15:27:28.714Z,1.32
2019-03-10T15:29:58.271Z,1.40
2019-03-10T15:32:28.126Z,1.70
2019-03-10T15:34:57.747Z,1.52
2019-03-10T15:37:27.249Z,1.12
2019-03-10T15:39:59.028Z,1.67
2019-03-10T15:42:28.659Z,1.27
2019-03-10T15:44:58.217Z,1.17
2019-03-10T15:47:27.772Z,1.40
2019-03-10T15:49:57.326Z,1.25
2019-03-10T15:52:26.883Z,1.20
2019-03-10T15:54:56.460Z,1.30
2019-03-10T15:57:25.999Z,1.22
2019-03-10T15:59:55.465Z,1.50
2019-03-10T16:02:50.959Z,1.30
2019-03-10T16:05:21.006Z,1.22
2019-03-10T16:07:50.573Z,1.00
2019-03-10T16:10:20.173Z,1.10
2019-03-10T16:12:49.748Z,1.05
2019-03-10T16:15:20.095Z,1.32
2019-03-10T16:17:49.851Z,1.20
2019-03-10T16:20:19.481Z,1.40
2019-03-10T16:22:49.087Z,1.20
2019-03-10T16:25:18.826Z,1.00
2019-03-10T16:27:49.890Z,1.30
2019-03-10T16:30:19.706Z,1.17
2019-03-10T16:32:49.432Z,1.10
2019-03-10T16:35:19.228Z,0.90
2019-03-10T16:37:48.680Z,0.80
2019-03-10T16:40:18.194Z,1.20
2019-03-10T16:42:47.720Z,0.80
2019-03-10T16:45:19.127Z,0.90
2019-03-10T16:47:48.660Z,0.87
2019-03-10T16:50:18.865Z,0.60
2019-03-10T16:52:48.490Z,1.20
2019-03-10T16:55:18.499Z,0.80
2019-03-10T16:57:48.348Z,0.73
2019-03-10T17:00:19.498Z,1.00
2019-03-10T17:02:49.703Z,0.93
2019-03-10T17:05:19.309Z,0.90
2019-03-10T17:07:49.270Z,0.73
2019-03-10T17:10:18.970Z,0.70
2019-03-10T17:12:48.577Z,1.10
2019-03-10T17:15:18.242Z,0.90
2019-03-10T17:17:47.789Z,1.00
2019-03-10T17:20:17.362Z,0.90
2019-03-10T17:22:47.005Z,0.77
2019-03-10T17:25:16.578Z,1.00
2019-03-10T17:27:46.117Z,1.07
2019-03-10T17:30:17.663Z,1.10
2019-03-10T17:32:47.197Z,1.10
2019-03-10T17:35:17.454Z,0.70
2019-03-10T17:37:48.580Z,0.80
2019-03-10T17:40:18.589Z,0.90
2019-03-10T17:42:48.253Z,1.00
2019-03-10T17:45:18.283Z,1.03
2019-03-10T17:47:47.877Z,0.80
2019-03-10T17:50:17.688Z,0.80
2019-03-10T17:52:47.798Z,1.10
2019-03-10T17:55:17.543Z,1.03
2019-03-10T17:57:47.112Z,0.90
2019-03-10T18:00:18.573Z,0.83
2019-03-10T18:02:48.164Z,0.57
2019-03-10T18:05:17.667Z,0.60
2019-03-10T18:07:47.297Z,0.40
2019-03-10T18:10:16.926Z,0.30
2019-03-10T18:12:46.377Z,0.20
2019-03-10T18:15:21.363Z,0.50
2019-03-10T18:17:59.655Z,0.30
2019-03-10T18:20:29.705Z,0.30
2019-03-10T18:22:59.572Z,0.40
2019-03-10T18:25:29.097Z,0.30
2019-03-10T18:27:58.701Z,0.60
2019-03-10T18:30:28.255Z,0.30
2019-03-10T18:32:57.784Z,0.60
2019-03-10T18:35:27.413Z,0.50
2019-03-10T18:37:56.905Z,0.57
2019-03-10T18:40:26.418Z,0.47
2019-03-10T18:42:56.023Z,0.50
2019-03-10T18:45:25.588Z,0.50
2019-03-10T18:47:55.083Z,0.70
2019-03-10T18:50:24.659Z,0.70
2019-03-10T18:52:54.195Z,0.70
2019-03-10T18:55:24.169Z,0.70
2019-03-10T18:57:53.653Z,0.70
2019-03-10T19:00:23.538Z,0.60
2019-03-10T19:02:55.375Z,0.70
2019-03-10T19:05:25.012Z,0.70
2019-03-10T19:07:55.659Z,1.00
2019-03-10T19:10:25.377Z,0.70
2019-03-10T19:12:54.963Z,0.87
2019-03-10T19:15:24.543Z,0.70
2019-03-10T19:17:54.133Z,0.80
2019-03-10T19:20:23.672Z,0.80
2019-03-10T19:22:53.273Z,0.67
2019-03-10T19:25:22.980Z,0.70
2019-03-10T19:27:52.665Z,0.70
2019-03-10T19:30:22.247Z,0.80
2019-03-10T19:32:52.043Z,0.60
2019-03-10T19:35:22.675Z,0.67
2019-03-10T19:37:52.268Z,0.90
2019-03-10T19:40:21.836Z,0.60
2019-03-10T19:42:51.366Z,0.80
2019-03-10T19:45:20.867Z,1.10
2019-03-10T19:47:50.430Z,0.70
2019-03-10T19:50:20.070Z,0.60
2019-03-10T19:52:49.627Z,0.57
2019-03-10T19:55:19.359Z,0.60
2019-03-10T19:57:48.941Z,0.50
2019-03-10T20:00:18.800Z,0.50
2019-03-10T20:02:48.449Z,0.43
2019-03-10T20:05:18.097Z,0.53
2019-03-10T20:07:47.646Z,0.53
2019-03-10T20:10:17.238Z,0.73
2019-03-10T20:12:47.245Z,0.43
2019-03-10T20:15:17.144Z,0.50
2019-03-10T20:17:46.625Z,0.50
2019-03-10T20:20:17.292Z,0.60
2019-03-10T20:22:46.847Z,0.60
2019-03-10T20:25:16.414Z,0.50
2019-03-10T20:27:46.096Z,0.43
2019-03-10T20:30:17.569Z,0.33
2019-03-10T20:32:47.097Z,0.53
2019-03-10T20:35:16.644Z,0.43
2019-03-10T20:37:46.216Z,0.50
2019-03-10T20:40:16.553Z,0.50
2019-03-10T20:42:46.125Z,0.60
2019-03-10T20:45:15.798Z,0.60
2019-03-10T20:47:45.731Z,0.60
2019-03-10T20:50:15.976Z,0.50
2019-03-10T20:52:45.919Z,0.60
2019-03-10T20:55:15.815Z,0.60
2019-03-10T20:57:45.831Z,0.43
2019-03-10T21:00:17.130Z,0.50
2019-03-10T21:02:46.745Z,0.60
2019-03-10T21:05:16.272Z,0.40
2019-03-10T21:07:45.870Z,0.60
2019-03-10T21:10:15.884Z,0.60
2019-03-10T21:12:45.412Z,0.60
2019-03-10T21:15:16.208Z,0.50
2019-03-10T21:17:46.121Z,0.80
2019-03-10T21:20:16.698Z,0.70
2019-03-10T21:22:46.216Z,0.60
2019-03-10T21:25:17.773Z,0.73
2019-03-10T21:27:47.224Z,0.90
2019-03-10T21:30:18.575Z,0.80
2019-03-10T21:32:48.103Z,0.80
2019-03-10T21:35:18.340Z,0.97
2019-03-10T21:37:48.048Z,0.90
2019-03-10T21:40:19.780Z,1.20
2019-03-10T21:42:49.611Z,1.00
2019-03-10T21:45:19.165Z,1.20
2019-03-10T21:47:48.678Z,1.20
2019-03-10T21:50:18.231Z,1.37
2019-03-10T21:52:47.688Z,1.50
2019-03-10T21:55:17.209Z,1.37
2019-03-10T21:57:46.681Z,1.50
2019-03-10T22:00:16.258Z,1.17
2019-03-10T22:02:45.911Z,1.97
2019-03-10T22:05:15.451Z,1.90
2019-03-10T22:07:45.250Z,1.70
2019-03-10T22:10:25.798Z,1.50
2019-03-10T22:12:46.667Z,1.70
2019-03-10T22:15:16.260Z,1.80
2019-03-10T22:17:45.740Z,2.03
2019-03-10T22:20:15.476Z,2.00
2019-03-10T22:22:49.120Z,2.17
2019-03-10T22:25:17.255Z,1.90
2019-03-10T22:27:46.748Z,1.80
2019-03-10T22:30:16.734Z,2.10
2019-03-10T22:32:46.348Z,2.00
2019-03-10T22:35:15.903Z,2.20
2019-03-10T22:37:45.364Z,1.93
2019-03-10T22:40:15.004Z,2.40
2019-03-10T22:42:44.649Z,2.87
2019-03-10T22:45:14.438Z,2.50
2019-03-10T22:47:44.131Z,2.47
2019-03-10T22:50:14.064Z,2.93
2019-03-10T22:52:43.665Z,2.10
2019-03-10T22:55:13.419Z,2.87
2019-03-10T22:57:42.920Z,2.53
2019-03-10T23:00:18.024Z,2.50
2019-03-10T23:02:47.542Z,2.10
2019-03-10T23:05:17.016Z,2.30
2019-03-10T23:07:46.459Z,2.70
2019-03-10T23:10:15.923Z,2.57
2019-03-10T23:12:45.632Z,2.33
2019-03-10T23:15:15.282Z,2.60
2019-03-10T23:17:44.788Z,2.83
2019-03-10T23:20:14.359Z,2.27
2019-03-10T23:22:43.836Z,2.23
2019-03-10T23:25:13.398Z,3.03
2019-03-10T23:27:42.900Z,2.40
2019-03-10T23:30:13.864Z,3.10
2019-03-10T23:32:43.755Z,2.87
2019-03-10T23:35:13.307Z,1.80
2019-03-10T23:37:42.741Z,2.30
2019-03-10T23:40:12.498Z,2.40
2019-03-10T23:42:42.020Z,2.73
2019-03-10T23:45:12.111Z,2.07
2019-03-10T23:47:41.645Z,2.43
2019-03-10T23:50:11.629Z,2.67
2019-03-10T23:52:41.205Z,2.07
2019-03-10T23:55:10.769Z,2.20
2019-03-10T23:57:40.296Z,2.57
